sensor_id;sensor_type;location;lat;lon;timestamp;temperature;humidity
35240;DHT22;21376;50.954;4.716;2023-02-18T00:00:28;11.30;99.90
35240;DHT22;21376;50.954;4.716;2023-02-18T00:02:57;11.30;99.90
35240;DHT22;21376;50.954;4.716;2023-02-18T00:05:27;11.30;99.90
35240;DHT22;21376;50.954;4.716;2023-02-18T00:07:58;11.20;99.90
35240;DHT22;21376;50.954;4.716;2023-02-18T00:10:27;11.20;99.90
35240;DHT22;21376;50.954;4.716;2023-02-18T00:12:55;11.20;99.90
35240;DHT22;21376;50.954;4.716;2023-02-18T00:15:21;11.30;99.90
35240;DHT22;21376;50.954;4.716;2023-02-18T00:17:54;11.20;99.90
35240;DHT22;21376;50.954;4.716;2023-02-18T00:20:23;11.20;99.90
35240;DHT22;21376;50.954;4.716;2023-02-18T00:22:51;11.20;99.90
35240;DHT22;21376;50.954;4.716;2023-02-18T00:25:19;11.20;99.90
35240;DHT22;21376;50.954;4.716;2023-02-18T00:27:47;11.20;99.90
35240;DHT22;21376;50.954;4.716;2023-02-18T00:30:16;11.20;99.90
35240;DHT22;21376;50.954;4.716;2023-02-18T00:32:45;11.10;99.90
35240;DHT22;21376;50.954;4.716;2023-02-18T00:35:20;11.30;99.90
35240;DHT22;21376;50.954;4.716;2023-02-18T00:37:47;11.20;99.90
35240;DHT22;21376;50.954;4.716;2023-02-18T00:40:16;11.00;99.90
35240;DHT22;21376;50.954;4.716;2023-02-18T00:42:42;11.20;99.90
35240;DHT22;21376;50.954;4.716;2023-02-18T00:45:09;11.30;99.90
35240;DHT22;21376;50.954;4.716;2023-02-18T00:47:35;11.30;99.90
35240;DHT22;21376;50.954;4.716;2023-02-18T00:50:04;11.30;99.90
35240;DHT22;21376;50.954;4.716;2023-02-18T00:52:30;11.30;99.90
35240;DHT22;21376;50.954;4.716;2023-02-18T00:55:03;11.40;99.90
35240;DHT22;21376;50.954;4.716;2023-02-18T00:57:44;11.30;99.90
35240;DHT22;21376;50.954;4.716;2023-02-18T01:00:13;11.40;99.90
35240;DHT22;21376;50.954;4.716;2023-02-18T01:02:39;11.30;99.90
35240;DHT22;21376;50.954;4.716;2023-02-18T01:05:08;11.30;99.90
35240;DHT22;21376;50.954;4.716;2023-02-18T01:07:40;11.20;99.90
35240;DHT22;21376;50.954;4.716;2023-02-18T01:10:12;11.30;99.90
35240;DHT22;21376;50.954;4.716;2023-02-18T01:12:41;11.20;99.90
35240;DHT22;21376;50.954;4.716;2023-02-18T01:15:18;11.20;99.90
35240;DHT22;21376;50.954;4.716;2023-02-18T01:17:45;11.30;99.90
35240;DHT22;21376;50.954;4.716;2023-02-18T01:20:12;11.20;99.90
35240;DHT22;21376;50.954;4.716;2023-02-18T01:22:41;11.20;99.90
35240;DHT22;21376;50.954;4.716;2023-02-18T01:25:13;11.20;99.90
35240;DHT22;21376;50.954;4.716;2023-02-18T01:27:42;11.00;99.90
35240;DHT22;21376;50.954;4.716;2023-02-18T01:30:13;11.20;99.90
35240;DHT22;21376;50.954;4.716;2023-02-18T01:32:44;11.30;99.90
35240;DHT22;21376;50.954;4.716;2023-02-18T01:35:18;11.30;99.90
35240;DHT22;21376;50.954;4.716;2023-02-18T01:37:45;11.30;99.90
35240;DHT22;21376;50.954;4.716;2023-02-18T01:40:18;11.30;99.90
35240;DHT22;21376;50.954;4.716;2023-02-18T01:42:49;11.30;99.90
35240;DHT22;21376;50.954;4.716;2023-02-18T01:48:33;11.10;99.90
35240;DHT22;21376;50.954;4.716;2023-02-18T01:51:19;11.20;99.90
35240;DHT22;21376;50.954;4.716;2023-02-18T01:56:22;11.00;99.90
35240;DHT22;21376;50.954;4.716;2023-02-18T01:58:49;11.00;99.90
35240;DHT22;21376;50.954;4.716;2023-02-18T02:01:15;11.00;99.90
35240;DHT22;21376;50.954;4.716;2023-02-18T02:03:43;11.10;99.90
35240;DHT22;21376;50.954;4.716;2023-02-18T02:06:16;11.00;99.90
35240;DHT22;21376;50.954;4.716;2023-02-18T02:08:45;11.10;99.90
35240;DHT22;21376;50.954;4.716;2023-02-18T02:11:27;11.00;99.90
35240;DHT22;21376;50.954;4.716;2023-02-18T02:14:25;11.00;99.90
35240;DHT22;21376;50.954;4.716;2023-02-18T02:17:03;10.90;99.90
35240;DHT22;21376;50.954;4.716;2023-02-18T02:22:33;11.00;99.90
35240;DHT22;21376;50.954;4.716;2023-02-18T02:31:59;10.90;99.90
35240;DHT22;21376;50.954;4.716;2023-02-18T02:40:29;10.90;99.90
35240;DHT22;21376;50.954;4.716;2023-02-18T02:49:31;10.90;99.90
35240;DHT22;21376;50.954;4.716;2023-02-18T02:52:02;10.80;99.90
35240;DHT22;21376;50.954;4.716;2023-02-18T02:54:30;10.80;99.90
35240;DHT22;21376;50.954;4.716;2023-02-18T02:57:36;10.80;99.90
35240;DHT22;21376;50.954;4.716;2023-02-18T03:00:05;10.80;99.90
35240;DHT22;21376;50.954;4.716;2023-02-18T03:12:02;10.80;99.90
35240;DHT22;21376;50.954;4.716;2023-02-18T03:14:43;10.80;99.90
35240;DHT22;21376;50.954;4.716;2023-02-18T03:17:48;10.80;99.90
35240;DHT22;21376;50.954;4.716;2023-02-18T03:20:24;10.80;99.90
35240;DHT22;21376;50.954;4.716;2023-02-18T03:22:52;10.80;99.90
35240;DHT22;21376;50.954;4.716;2023-02-18T03:25:25;10.80;99.90
35240;DHT22;21376;50.954;4.716;2023-02-18T03:28:04;10.60;99.90
35240;DHT22;21376;50.954;4.716;2023-02-18T03:30:59;10.70;99.90
35240;DHT22;21376;50.954;4.716;2023-02-18T03:33:31;10.70;99.90
35240;DHT22;21376;50.954;4.716;2023-02-18T03:36:07;10.70;99.90
35240;DHT22;21376;50.954;4.716;2023-02-18T03:38:47;10.70;99.90
35240;DHT22;21376;50.954;4.716;2023-02-18T03:41:18;10.70;99.90
35240;DHT22;21376;50.954;4.716;2023-02-18T03:47:00;10.70;99.90
35240;DHT22;21376;50.954;4.716;2023-02-18T03:49:29;10.70;99.90
35240;DHT22;21376;50.954;4.716;2023-02-18T03:51:57;10.60;99.90
35240;DHT22;21376;50.954;4.716;2023-02-18T03:54:31;10.50;99.90
35240;DHT22;21376;50.954;4.716;2023-02-18T03:56:57;10.50;99.90
35240;DHT22;21376;50.954;4.716;2023-02-18T03:59:26;10.50;99.90
35240;DHT22;21376;50.954;4.716;2023-02-18T04:01:53;10.60;99.90
35240;DHT22;21376;50.954;4.716;2023-02-18T04:04:31;10.50;99.90
35240;DHT22;21376;50.954;4.716;2023-02-18T04:07:00;10.60;99.90
35240;DHT22;21376;50.954;4.716;2023-02-18T04:09:28;10.60;99.90
35240;DHT22;21376;50.954;4.716;2023-02-18T04:11:54;10.60;99.90
35240;DHT22;21376;50.954;4.716;2023-02-18T04:14:23;10.60;99.90
35240;DHT22;21376;50.954;4.716;2023-02-18T04:16:52;10.60;99.90
35240;DHT22;21376;50.954;4.716;2023-02-18T04:19:21;10.50;99.90
35240;DHT22;21376;50.954;4.716;2023-02-18T04:21:58;10.50;99.90
35240;DHT22;21376;50.954;4.716;2023-02-18T04:24:25;10.50;99.90
35240;DHT22;21376;50.954;4.716;2023-02-18T04:26:54;10.50;99.90
35240;DHT22;21376;50.954;4.716;2023-02-18T04:29:21;10.50;99.90
35240;DHT22;21376;50.954;4.716;2023-02-18T04:31:50;10.50;99.90
35240;DHT22;21376;50.954;4.716;2023-02-18T04:34:16;10.60;99.90
35240;DHT22;21376;50.954;4.716;2023-02-18T04:36:45;10.50;99.90
35240;DHT22;21376;50.954;4.716;2023-02-18T04:39:29;10.50;99.90
35240;DHT22;21376;50.954;4.716;2023-02-18T04:41:57;10.50;99.90
35240;DHT22;21376;50.954;4.716;2023-02-18T04:44:26;10.50;99.90
35240;DHT22;21376;50.954;4.716;2023-02-18T04:46:55;10.40;99.90
35240;DHT22;21376;50.954;4.716;2023-02-18T04:49:26;10.50;99.90
35240;DHT22;21376;50.954;4.716;2023-02-18T04:51:52;10.50;99.90
35240;DHT22;21376;50.954;4.716;2023-02-18T04:54:21;10.40;99.90
35240;DHT22;21376;50.954;4.716;2023-02-18T04:56:48;10.40;99.90
35240;DHT22;21376;50.954;4.716;2023-02-18T04:59:16;10.50;99.90
35240;DHT22;21376;50.954;4.716;2023-02-18T05:01:54;10.50;99.90
35240;DHT22;21376;50.954;4.716;2023-02-18T05:04:25;10.50;99.90
35240;DHT22;21376;50.954;4.716;2023-02-18T05:06:54;10.50;99.90
35240;DHT22;21376;50.954;4.716;2023-02-18T05:09:26;10.50;99.90
35240;DHT22;21376;50.954;4.716;2023-02-18T05:11:56;10.50;99.90
35240;DHT22;21376;50.954;4.716;2023-02-18T05:14:28;10.40;99.90
35240;DHT22;21376;50.954;4.716;2023-02-18T05:16:57;10.50;99.90
35240;DHT22;21376;50.954;4.716;2023-02-18T05:19:42;10.40;99.90
35240;DHT22;21376;50.954;4.716;2023-02-18T05:22:26;10.40;99.90
35240;DHT22;21376;50.954;4.716;2023-02-18T05:24:55;10.40;99.90
35240;DHT22;21376;50.954;4.716;2023-02-18T05:27:37;10.40;99.90
35240;DHT22;21376;50.954;4.716;2023-02-18T05:30:06;10.40;99.90
35240;DHT22;21376;50.954;4.716;2023-02-18T05:32:32;10.40;99.90
35240;DHT22;21376;50.954;4.716;2023-02-18T05:35:04;10.30;99.90
35240;DHT22;21376;50.954;4.716;2023-02-18T05:37:33;10.50;99.90
35240;DHT22;21376;50.954;4.716;2023-02-18T05:40:02;10.40;99.90
35240;DHT22;21376;50.954;4.716;2023-02-18T05:42:34;10.30;99.90
35240;DHT22;21376;50.954;4.716;2023-02-18T05:47:53;10.20;99.90
35240;DHT22;21376;50.954;4.716;2023-02-18T05:50:20;10.30;99.90
35240;DHT22;21376;50.954;4.716;2023-02-18T05:52:49;10.40;99.90
35240;DHT22;21376;50.954;4.716;2023-02-18T05:55:16;10.50;99.90
35240;DHT22;21376;50.954;4.716;2023-02-18T05:57:43;10.40;99.90
35240;DHT22;21376;50.954;4.716;2023-02-18T06:00:10;10.10;99.90
35240;DHT22;21376;50.954;4.716;2023-02-18T06:02:39;10.20;99.90
35240;DHT22;21376;50.954;4.716;2023-02-18T06:05:07;10.20;99.90
35240;DHT22;21376;50.954;4.716;2023-02-18T06:07:36;10.20;99.90
35240;DHT22;21376;50.954;4.716;2023-02-18T06:10:15;10.10;99.90
35240;DHT22;21376;50.954;4.716;2023-02-18T06:12:56;9.90;99.90
35240;DHT22;21376;50.954;4.716;2023-02-18T06:15:24;10.00;99.90
35240;DHT22;21376;50.954;4.716;2023-02-18T06:17:49;10.00;99.90
35240;DHT22;21376;50.954;4.716;2023-02-18T06:20:17;10.00;99.90
35240;DHT22;21376;50.954;4.716;2023-02-18T06:22:46;10.00;99.90
35240;DHT22;21376;50.954;4.716;2023-02-18T06:25:15;10.10;99.90
35240;DHT22;21376;50.954;4.716;2023-02-18T06:27:41;10.10;99.90
35240;DHT22;21376;50.954;4.716;2023-02-18T06:30:13;10.00;99.90
35240;DHT22;21376;50.954;4.716;2023-02-18T06:32:42;10.00;99.90
35240;DHT22;21376;50.954;4.716;2023-02-18T06:35:07;9.90;99.90
35240;DHT22;21376;50.954;4.716;2023-02-18T06:37:33;9.90;99.90
35240;DHT22;21376;50.954;4.716;2023-02-18T06:40:04;9.90;99.90
35240;DHT22;21376;50.954;4.716;2023-02-18T06:42:31;9.90;99.90
35240;DHT22;21376;50.954;4.716;2023-02-18T06:45:00;9.80;99.90
35240;DHT22;21376;50.954;4.716;2023-02-18T06:47:29;10.00;99.90
35240;DHT22;21376;50.954;4.716;2023-02-18T06:49:58;10.10;99.90
35240;DHT22;21376;50.954;4.716;2023-02-18T06:52:58;10.00;99.90
35240;DHT22;21376;50.954;4.716;2023-02-18T06:55:27;9.90;99.90
35240;DHT22;21376;50.954;4.716;2023-02-18T06:58:16;9.90;99.90
35240;DHT22;21376;50.954;4.716;2023-02-18T07:00:43;10.00;99.90
35240;DHT22;21376;50.954;4.716;2023-02-18T07:03:12;10.00;99.90
35240;DHT22;21376;50.954;4.716;2023-02-18T07:05:42;10.00;99.90
35240;DHT22;21376;50.954;4.716;2023-02-18T07:08:10;10.10;99.90
35240;DHT22;21376;50.954;4.716;2023-02-18T07:10:38;10.10;99.90
35240;DHT22;21376;50.954;4.716;2023-02-18T07:13:07;10.10;99.90
35240;DHT22;21376;50.954;4.716;2023-02-18T07:15:38;10.10;99.90
35240;DHT22;21376;50.954;4.716;2023-02-18T07:21:33;10.10;99.90
35240;DHT22;21376;50.954;4.716;2023-02-18T07:24:02;10.00;99.90
35240;DHT22;21376;50.954;4.716;2023-02-18T07:26:38;10.10;99.90
35240;DHT22;21376;50.954;4.716;2023-02-18T07:29:06;10.20;99.90
35240;DHT22;21376;50.954;4.716;2023-02-18T07:31:35;10.20;99.90
35240;DHT22;21376;50.954;4.716;2023-02-18T07:34:06;10.20;99.90
35240;DHT22;21376;50.954;4.716;2023-02-18T07:36:35;10.10;99.90
35240;DHT22;21376;50.954;4.716;2023-02-18T07:39:01;10.30;99.90
35240;DHT22;21376;50.954;4.716;2023-02-18T07:41:37;10.20;99.90
35240;DHT22;21376;50.954;4.716;2023-02-18T07:44:06;10.30;99.90
35240;DHT22;21376;50.954;4.716;2023-02-18T07:46:32;10.40;99.90
35240;DHT22;21376;50.954;4.716;2023-02-18T07:48:58;10.40;99.90
35240;DHT22;21376;50.954;4.716;2023-02-18T07:51:25;10.40;99.90
35240;DHT22;21376;50.954;4.716;2023-02-18T07:53:54;10.40;99.90
35240;DHT22;21376;50.954;4.716;2023-02-18T07:56:30;10.40;99.90
35240;DHT22;21376;50.954;4.716;2023-02-18T07:58:56;10.50;99.90
35240;DHT22;21376;50.954;4.716;2023-02-18T08:01:25;10.50;99.90
35240;DHT22;21376;50.954;4.716;2023-02-18T08:03:56;10.60;99.90
35240;DHT22;21376;50.954;4.716;2023-02-18T08:06:44;10.50;99.90
35240;DHT22;21376;50.954;4.716;2023-02-18T08:09:15;10.60;99.90
35240;DHT22;21376;50.954;4.716;2023-02-18T08:11:47;10.60;99.90
35240;DHT22;21376;50.954;4.716;2023-02-18T08:14:14;10.60;99.90
35240;DHT22;21376;50.954;4.716;2023-02-18T08:16:43;10.60;99.90
35240;DHT22;21376;50.954;4.716;2023-02-18T08:19:10;10.70;99.90
35240;DHT22;21376;50.954;4.716;2023-02-18T08:21:38;10.70;99.90
35240;DHT22;21376;50.954;4.716;2023-02-18T08:24:07;10.70;99.90
35240;DHT22;21376;50.954;4.716;2023-02-18T08:26:39;10.70;99.90
35240;DHT22;21376;50.954;4.716;2023-02-18T08:29:08;10.70;99.90
35240;DHT22;21376;50.954;4.716;2023-02-18T08:31:37;10.70;99.90
35240;DHT22;21376;50.954;4.716;2023-02-18T08:34:06;10.70;99.90
35240;DHT22;21376;50.954;4.716;2023-02-18T08:36:37;10.90;99.90
35240;DHT22;21376;50.954;4.716;2023-02-18T08:39:25;11.00;99.90
35240;DHT22;21376;50.954;4.716;2023-02-18T08:41:58;11.00;99.90
35240;DHT22;21376;50.954;4.716;2023-02-18T08:44:27;11.00;99.90
35240;DHT22;21376;50.954;4.716;2023-02-18T08:46:59;11.10;99.90
35240;DHT22;21376;50.954;4.716;2023-02-18T08:49:28;11.00;99.90
35240;DHT22;21376;50.954;4.716;2023-02-18T08:52:14;11.00;99.90
35240;DHT22;21376;50.954;4.716;2023-02-18T08:54:51;11.00;99.90
35240;DHT22;21376;50.954;4.716;2023-02-18T08:57:36;11.00;99.90
35240;DHT22;21376;50.954;4.716;2023-02-18T09:00:02;11.10;99.90
35240;DHT22;21376;50.954;4.716;2023-02-18T09:02:30;11.20;99.90
35240;DHT22;21376;50.954;4.716;2023-02-18T09:04:59;11.20;99.90
35240;DHT22;21376;50.954;4.716;2023-02-18T09:07:28;11.20;99.90
35240;DHT22;21376;50.954;4.716;2023-02-18T09:09:55;11.20;99.90
35240;DHT22;21376;50.954;4.716;2023-02-18T09:12:21;11.20;99.90
35240;DHT22;21376;50.954;4.716;2023-02-18T09:14:55;11.20;99.90
35240;DHT22;21376;50.954;4.716;2023-02-18T09:17:24;11.30;99.90
35240;DHT22;21376;50.954;4.716;2023-02-18T09:19:50;11.40;99.90
35240;DHT22;21376;50.954;4.716;2023-02-18T09:22:17;11.30;99.90
35240;DHT22;21376;50.954;4.716;2023-02-18T09:24:44;11.30;99.90
35240;DHT22;21376;50.954;4.716;2023-02-18T09:27:14;11.40;99.90
35240;DHT22;21376;50.954;4.716;2023-02-18T09:29:42;11.40;99.90
35240;DHT22;21376;50.954;4.716;2023-02-18T09:32:13;11.30;99.90
35240;DHT22;21376;50.954;4.716;2023-02-18T09:34:43;11.20;99.90
35240;DHT22;21376;50.954;4.716;2023-02-18T09:44:36;11.30;99.90
35240;DHT22;21376;50.954;4.716;2023-02-18T09:47:20;11.30;99.90
35240;DHT22;21376;50.954;4.716;2023-02-18T09:49:55;11.40;99.90
35240;DHT22;21376;50.954;4.716;2023-02-18T09:52:34;11.50;99.90
35240;DHT22;21376;50.954;4.716;2023-02-18T09:55:27;11.50;99.90
35240;DHT22;21376;50.954;4.716;2023-02-18T09:57:58;11.50;99.90
35240;DHT22;21376;50.954;4.716;2023-02-18T10:00:34;11.40;99.90
35240;DHT22;21376;50.954;4.716;2023-02-18T10:03:31;11.40;99.90
35240;DHT22;21376;50.954;4.716;2023-02-18T10:08:33;11.40;99.90
35240;DHT22;21376;50.954;4.716;2023-02-18T10:11:02;11.30;99.90
35240;DHT22;21376;50.954;4.716;2023-02-18T10:13:31;11.30;99.90
35240;DHT22;21376;50.954;4.716;2023-02-18T10:16:01;11.40;99.90
35240;DHT22;21376;50.954;4.716;2023-02-18T10:18:34;11.40;99.90
35240;DHT22;21376;50.954;4.716;2023-02-18T10:21:09;11.50;99.90
35240;DHT22;21376;50.954;4.716;2023-02-18T10:23:39;11.40;99.90
35240;DHT22;21376;50.954;4.716;2023-02-18T10:26:13;11.40;99.90
35240;DHT22;21376;50.954;4.716;2023-02-18T10:28:41;11.40;99.90
35240;DHT22;21376;50.954;4.716;2023-02-18T10:31:21;11.50;99.90
35240;DHT22;21376;50.954;4.716;2023-02-18T10:37:01;11.70;99.90
35240;DHT22;21376;50.954;4.716;2023-02-18T10:45:36;11.60;99.90
35240;DHT22;21376;50.954;4.716;2023-02-18T10:48:22;11.50;99.90
35240;DHT22;21376;50.954;4.716;2023-02-18T10:50:52;11.50;99.90
35240;DHT22;21376;50.954;4.716;2023-02-18T10:53:35;11.60;99.90
35240;DHT22;21376;50.954;4.716;2023-02-18T11:04:37;11.80;99.90
35240;DHT22;21376;50.954;4.716;2023-02-18T11:07:30;11.80;99.90
35240;DHT22;21376;50.954;4.716;2023-02-18T11:10:15;11.70;99.90
35240;DHT22;21376;50.954;4.716;2023-02-18T11:12:51;11.80;99.90
35240;DHT22;21376;50.954;4.716;2023-02-18T11:15:27;11.80;99.90
35240;DHT22;21376;50.954;4.716;2023-02-18T11:18:58;11.80;99.90
35240;DHT22;21376;50.954;4.716;2023-02-18T11:23:50;11.80;99.90
35240;DHT22;21376;50.954;4.716;2023-02-18T11:26:32;11.70;99.90
35240;DHT22;21376;50.954;4.716;2023-02-18T11:29:11;11.80;99.90
35240;DHT22;21376;50.954;4.716;2023-02-18T11:37:21;11.90;99.90
35240;DHT22;21376;50.954;4.716;2023-02-18T11:39:58;11.90;99.90
35240;DHT22;21376;50.954;4.716;2023-02-18T11:42:31;11.90;99.90
35240;DHT22;21376;50.954;4.716;2023-02-18T11:44:59;12.00;99.90
35240;DHT22;21376;50.954;4.716;2023-02-18T11:47:32;11.90;99.90
35240;DHT22;21376;50.954;4.716;2023-02-18T11:50:20;12.00;99.90
35240;DHT22;21376;50.954;4.716;2023-02-18T11:52:50;11.90;99.90
35240;DHT22;21376;50.954;4.716;2023-02-18T11:55:26;11.90;99.90
35240;DHT22;21376;50.954;4.716;2023-02-18T11:58:03;12.00;99.90
35240;DHT22;21376;50.954;4.716;2023-02-18T12:03:42;12.10;99.90
35240;DHT22;21376;50.954;4.716;2023-02-18T12:06:28;12.10;99.90
35240;DHT22;21376;50.954;4.716;2023-02-18T12:09:18;12.10;99.90
35240;DHT22;21376;50.954;4.716;2023-02-18T12:11:57;12.10;99.90
35240;DHT22;21376;50.954;4.716;2023-02-18T12:14:33;12.00;99.90
35240;DHT22;21376;50.954;4.716;2023-02-18T12:20:19;12.10;99.90
35240;DHT22;21376;50.954;4.716;2023-02-18T12:26:02;12.30;99.90
35240;DHT22;21376;50.954;4.716;2023-02-18T12:31:47;12.30;99.90
35240;DHT22;21376;50.954;4.716;2023-02-18T12:37:37;12.20;99.90
35240;DHT22;21376;50.954;4.716;2023-02-18T12:48:54;12.50;99.90
35240;DHT22;21376;50.954;4.716;2023-02-18T13:18:00;11.90;99.90
35240;DHT22;21376;50.954;4.716;2023-02-18T13:20:42;11.90;99.90
35240;DHT22;21376;50.954;4.716;2023-02-18T13:23:22;11.70;99.90
35240;DHT22;21376;50.954;4.716;2023-02-18T13:25:53;11.70;99.90
35240;DHT22;21376;50.954;4.716;2023-02-18T13:28:38;11.60;99.90
35240;DHT22;21376;50.954;4.716;2023-02-18T13:34:49;11.50;99.90
35240;DHT22;21376;50.954;4.716;2023-02-18T13:40:16;11.40;99.90
35240;DHT22;21376;50.954;4.716;2023-02-18T13:42:44;11.30;99.90
35240;DHT22;21376;50.954;4.716;2023-02-18T13:45:31;11.40;99.90
35240;DHT22;21376;50.954;4.716;2023-02-18T13:47:58;11.50;99.90
35240;DHT22;21376;50.954;4.716;2023-02-18T13:50:42;11.50;99.90
35240;DHT22;21376;50.954;4.716;2023-02-18T13:58:20;11.40;99.90
35240;DHT22;21376;50.954;4.716;2023-02-18T14:00:53;11.50;99.90
35240;DHT22;21376;50.954;4.716;2023-02-18T14:04:31;11.40;99.90
35240;DHT22;21376;50.954;4.716;2023-02-18T14:06:27;11.40;99.90
35240;DHT22;21376;50.954;4.716;2023-02-18T14:11:53;11.40;99.90
35240;DHT22;21376;50.954;4.716;2023-02-18T14:14:30;11.40;99.90
35240;DHT22;21376;50.954;4.716;2023-02-18T14:22:44;11.20;99.90
35240;DHT22;21376;50.954;4.716;2023-02-18T14:27:37;11.30;99.90
35240;DHT22;21376;50.954;4.716;2023-02-18T14:30:07;11.30;99.90
35240;DHT22;21376;50.954;4.716;2023-02-18T14:32:40;11.40;99.90
35240;DHT22;21376;50.954;4.716;2023-02-18T14:38:11;11.40;99.90
35240;DHT22;21376;50.954;4.716;2023-02-18T14:41:18;11.40;99.90
35240;DHT22;21376;50.954;4.716;2023-02-18T14:50:20;11.50;99.90
35240;DHT22;21376;50.954;4.716;2023-02-18T14:53:13;11.40;99.90
35240;DHT22;21376;50.954;4.716;2023-02-18T14:56:12;11.40;99.90
35240;DHT22;21376;50.954;4.716;2023-02-18T14:59:04;11.40;99.90
35240;DHT22;21376;50.954;4.716;2023-02-18T15:01:32;11.40;99.90
35240;DHT22;21376;50.954;4.716;2023-02-18T15:04:02;11.40;99.90
35240;DHT22;21376;50.954;4.716;2023-02-18T15:09:58;11.70;99.90
35240;DHT22;21376;50.954;4.716;2023-02-18T15:12:30;11.90;99.90
35240;DHT22;21376;50.954;4.716;2023-02-18T15:21:12;11.90;99.90
35240;DHT22;21376;50.954;4.716;2023-02-18T15:23:45;11.70;99.90
35240;DHT22;21376;50.954;4.716;2023-02-18T15:26:15;11.80;99.90
35240;DHT22;21376;50.954;4.716;2023-02-18T15:28:59;11.90;99.90
35240;DHT22;21376;50.954;4.716;2023-02-18T15:31:30;11.80;99.90
35240;DHT22;21376;50.954;4.716;2023-02-18T15:34:37;11.90;99.90
35240;DHT22;21376;50.954;4.716;2023-02-18T15:37:09;11.80;99.90
35240;DHT22;21376;50.954;4.716;2023-02-18T15:39:35;12.00;99.90
35240;DHT22;21376;50.954;4.716;2023-02-18T15:42:31;11.90;99.90
35240;DHT22;21376;50.954;4.716;2023-02-18T15:48:51;11.70;99.90
35240;DHT22;21376;50.954;4.716;2023-02-18T15:51:21;11.60;99.90
35240;DHT22;21376;50.954;4.716;2023-02-18T15:53:57;11.60;99.90
35240;DHT22;21376;50.954;4.716;2023-02-18T15:56:30;11.40;99.90
35240;DHT22;21376;50.954;4.716;2023-02-18T16:02:22;11.50;99.90
35240;DHT22;21376;50.954;4.716;2023-02-18T16:05:12;11.50;99.90
35240;DHT22;21376;50.954;4.716;2023-02-18T16:14:47;11.60;99.90
35240;DHT22;21376;50.954;4.716;2023-02-18T16:17:22;11.60;99.90
35240;DHT22;21376;50.954;4.716;2023-02-18T16:19:58;11.60;99.90
35240;DHT22;21376;50.954;4.716;2023-02-18T16:22:35;11.50;99.90
35240;DHT22;21376;50.954;4.716;2023-02-18T16:25:25;11.50;99.90
35240;DHT22;21376;50.954;4.716;2023-02-18T16:30:32;11.50;99.90
35240;DHT22;21376;50.954;4.716;2023-02-18T16:33:01;11.60;99.90
35240;DHT22;21376;50.954;4.716;2023-02-18T16:35:29;11.50;99.90
35240;DHT22;21376;50.954;4.716;2023-02-18T16:37:55;11.50;99.90
35240;DHT22;21376;50.954;4.716;2023-02-18T16:40:27;11.60;99.90
35240;DHT22;21376;50.954;4.716;2023-02-18T16:42:55;11.70;99.90
35240;DHT22;21376;50.954;4.716;2023-02-18T16:45:35;11.70;99.90
35240;DHT22;21376;50.954;4.716;2023-02-18T16:48:04;11.70;99.90
35240;DHT22;21376;50.954;4.716;2023-02-18T16:50:32;11.70;99.90
35240;DHT22;21376;50.954;4.716;2023-02-18T16:52:59;11.60;99.90
35240;DHT22;21376;50.954;4.716;2023-02-18T16:55:27;11.50;99.90
35240;DHT22;21376;50.954;4.716;2023-02-18T16:57:54;11.70;99.90
35240;DHT22;21376;50.954;4.716;2023-02-18T17:00:22;11.60;99.90
35240;DHT22;21376;50.954;4.716;2023-02-18T17:02:55;11.60;99.90
35240;DHT22;21376;50.954;4.716;2023-02-18T17:05:30;11.70;99.90
35240;DHT22;21376;50.954;4.716;2023-02-18T17:08:19;11.60;99.90
35240;DHT22;21376;50.954;4.716;2023-02-18T17:10:52;11.60;99.90
35240;DHT22;21376;50.954;4.716;2023-02-18T17:13:23;11.50;99.90
35240;DHT22;21376;50.954;4.716;2023-02-18T17:15:55;11.60;99.90
35240;DHT22;21376;50.954;4.716;2023-02-18T17:18:28;11.70;99.90
35240;DHT22;21376;50.954;4.716;2023-02-18T17:20:54;11.60;99.90
35240;DHT22;21376;50.954;4.716;2023-02-18T17:23:23;11.30;99.90
35240;DHT22;21376;50.954;4.716;2023-02-18T17:25:51;11.50;99.90
35240;DHT22;21376;50.954;4.716;2023-02-18T17:28:17;11.50;99.90
35240;DHT22;21376;50.954;4.716;2023-02-18T17:31:11;11.40;99.90
35240;DHT22;21376;50.954;4.716;2023-02-18T17:37:16;11.50;99.90
35240;DHT22;21376;50.954;4.716;2023-02-18T17:39:45;11.40;99.90
35240;DHT22;21376;50.954;4.716;2023-02-18T17:42:14;11.40;99.90
35240;DHT22;21376;50.954;4.716;2023-02-18T17:44:44;11.40;99.90
35240;DHT22;21376;50.954;4.716;2023-02-18T17:47:11;11.50;99.90
35240;DHT22;21376;50.954;4.716;2023-02-18T17:49:40;11.50;99.90
35240;DHT22;21376;50.954;4.716;2023-02-18T17:52:15;11.40;99.90
35240;DHT22;21376;50.954;4.716;2023-02-18T17:54:52;11.40;99.90
35240;DHT22;21376;50.954;4.716;2023-02-18T17:57:24;11.40;99.90
35240;DHT22;21376;50.954;4.716;2023-02-18T17:59:50;11.40;99.90
35240;DHT22;21376;50.954;4.716;2023-02-18T18:02:30;11.40;99.90
35240;DHT22;21376;50.954;4.716;2023-02-18T18:05:02;11.30;99.90
35240;DHT22;21376;50.954;4.716;2023-02-18T18:07:28;11.30;99.90
35240;DHT22;21376;50.954;4.716;2023-02-18T18:09:58;11.30;99.90
35240;DHT22;21376;50.954;4.716;2023-02-18T18:12:24;11.40;99.90
35240;DHT22;21376;50.954;4.716;2023-02-18T18:14:50;11.30;99.90
35240;DHT22;21376;50.954;4.716;2023-02-18T18:17:20;11.40;99.90
35240;DHT22;21376;50.954;4.716;2023-02-18T18:19:49;11.30;99.90
35240;DHT22;21376;50.954;4.716;2023-02-18T18:22:18;11.30;99.90
35240;DHT22;21376;50.954;4.716;2023-02-18T18:24:46;11.30;99.90
35240;DHT22;21376;50.954;4.716;2023-02-18T18:27:17;11.20;99.90
35240;DHT22;21376;50.954;4.716;2023-02-18T18:29:46;11.30;99.90
35240;DHT22;21376;50.954;4.716;2023-02-18T18:32:15;11.30;99.90
35240;DHT22;21376;50.954;4.716;2023-02-18T18:34:44;11.30;99.90
35240;DHT22;21376;50.954;4.716;2023-02-18T18:37:13;11.30;99.90
35240;DHT22;21376;50.954;4.716;2023-02-18T18:39:42;11.30;99.90
35240;DHT22;21376;50.954;4.716;2023-02-18T18:42:11;11.20;99.90
35240;DHT22;21376;50.954;4.716;2023-02-18T18:44:39;11.20;99.90
35240;DHT22;21376;50.954;4.716;2023-02-18T18:47:08;11.30;99.90
35240;DHT22;21376;50.954;4.716;2023-02-18T18:49:35;11.30;99.90
35240;DHT22;21376;50.954;4.716;2023-02-18T18:52:03;11.20;99.90
35240;DHT22;21376;50.954;4.716;2023-02-18T18:54:34;11.10;99.90
35240;DHT22;21376;50.954;4.716;2023-02-18T18:57:06;11.10;99.90
35240;DHT22;21376;50.954;4.716;2023-02-18T18:59:35;11.00;99.90
35240;DHT22;21376;50.954;4.716;2023-02-18T19:02:01;10.90;99.90
35240;DHT22;21376;50.954;4.716;2023-02-18T19:04:27;10.90;99.90
35240;DHT22;21376;50.954;4.716;2023-02-18T19:06:53;10.90;99.90
35240;DHT22;21376;50.954;4.716;2023-02-18T19:09:20;11.00;99.90
35240;DHT22;21376;50.954;4.716;2023-02-18T19:11:49;10.90;99.90
35240;DHT22;21376;50.954;4.716;2023-02-18T19:14:19;11.00;99.90
35240;DHT22;21376;50.954;4.716;2023-02-18T19:16:47;11.00;99.90
35240;DHT22;21376;50.954;4.716;2023-02-18T19:19:16;11.00;99.90